Kaltag, AK

6:33 AM AKDT on August 28, 2014 (GMT -0800)
Kaltag | Change Station
CLOSE
Current Station
Airport
Location: Kaltag,
Elevation: 200 ft
Nearby Weather Stations

Elev 200 ft 64.32 °N, 158.74 °W | Updated 40 minutes ago

Overcast
Overcast
47 °F
Feels Like 47 °F
N
4
Wind Variable Wind from SW

Today
High -- | Low -- °F
--% Chance of Precip.
Yesterday
High -- | Low -- °F
Precip. -- in
7:05 AM 10:04 PM
Waxing Crescent, 8% visible
Pressure 29.67 in
Visibility 10.0 miles
Clouds Overcast 6000 ft
Dew Point 45 °F
Humidity 93%
Rainfall 0.00 in
Snow Depth Not available.
UV 0 out of 12
Pollen Not available.
Air Quality Not available.
Flu Activity Not available.
METAR PAKV 281353Z AUTO 22003KT 10SM OVC060 08/07 A2967 RMK AO1 SLP047 T00830072 TSNO

More Conditions Fewer Conditions

Pressure 29.67 in
Visibility 10.0 miles
Clouds Overcast 6000 ft
Dew Point 45 °F
Humidity 93%
Rainfall 0.00 in
Snow Depth Not available.
UV 0 out of 12
Pollen Not available.
Air Quality Not available.
Flu Activity Not available.
METAR PAKV 281353Z AUTO 22003KT 10SM OVC060 08/07 A2967 RMK AO1 SLP047 T00830072 TSNO

More Conditions Fewer Conditions

10-Day Weather Forecast

Almanac

Astronomy

Aug. 28, 2014 Rise Set
Actual Time 7:05 AM AKDT 10:04 PM AKDT
Civil Twilight 6:09 AM AKDT 10:59 PM AKDT
Nautical Twilight 4:47 AM AKDT 12:19 AM AKDT
Astronomical Twilight 3:08 AM AKDT 2:03 AM AKDT
Moon 11:29 AM AKDT 10:07 PM AKDT
Length of Visible Light 16h 50m
Length of Day
14h 59m
Tomorrow will be 6m 33s shorter.
Waxing Crescent, 8% of the Moon is Illuminated
Today
Waxing Crescent
Sep 2
First Quarter
Sep 8
Full
Sep 15
Last Quarter
Sep 24
New

Today's Extremes

State Highs State Lows

Community

WunderPhotos

Upload Photos

1,747,963 photos uploaded!

Nearby

Snow Depth

Station Depth Elevation
Rocky Point 4 in 500 ft
Gobblers Knob 0 in 2030 ft
Susitna Valley High 109 in 375 ft
Coldfoot 1 in 1040 ft
Point Mackenzie 1 in 200 ft

Earthquake Activity

City Distance Mag. Time & Date
No recent earthquake activity has been reported nearby.
Minimum magnitude displayed is 2.5.

Coastal Water Temperatures

Place Temperature
No Stations Reporting

Nearby Weather Stations